Aeroporto :







RITROVATECI SU...

 
LOGIN :

Iscrizione | Disclaimer

   EN    FR    IT 

 









Sommario :    VFR   VFR Marginale   IFR   IFR Intensivo   IFR Molto Intensivo
Visibilità : 
Base nubi : 
>= 8 km
>= 3000ft
5 / 8 km
1000 / 3000 ft
1500m / 5 km
500 / 1000 ft
800 / 1500m
200 / 500 ft
< 800m
< 200 ft
Simboli :   Temporali  Nebbia  Neve Forte  Precipitazioni Forti  Vento > 20 kt






- Altitudine del aeroporto : 1808 ft
- Codice IATA : YWK


CYWK - Wabush

ULTIMO METAR :
  • 231100Z 28004KT 15SM SCT036 M15/M18 A2966 RMK SC3 /S04/ AFT 00 UTC SLP086

METARs OBSOLETI :
  • 231008Z AUTO 32006KT 9SM SCT023 M15/M19 A2964 RMK SLP079
  • 231003Z AUTO 34005KT 9SM BKN023 M15/M18 A2963 RMK SLP078
  • 230927Z AUTO 29006KT 8SM -SN SCT022 BKN029 OVC042 M13/M16 A2961 RMK SLP067
  • 230922Z AUTO 28006KT 9SM -SN BKN022 BKN029 OVC042 M13/M16 A2961 RMK SLP066
  • 230900Z AUTO 28007KT 6SM -SN FEW020 OVC042 M12/M16 A2959 RMK SLP062

TAF TAF CYWK
Valido dal 23 a 08 ore il 23 a 20 ore UTC


230738Z 2308/2320 29010KT P6SM FEW020 OVC040
TEMPO 2308/2310 3SM -SHSN OVC020
FM231000 30008KT P6SM BKN030
TEMPO 2310/2320 BKN020 RMK FCST BASED ON AUTO OBS. NXT FCST BY 231400Z



MetMap, La meteo Aeronautica in un colpo d'occhio ! - Copyright ORBIFLY Dicembre 2007 - Disclaimer

ORBIFLY MET'MAP TEAM :

Programmazione e sviluppo : Alexandra Zaïnal
Concezione : Baudouin d'Aumeries
Aiuto per la programmazione : Marc-Olivier Méhu
Supporto tecnico e logistico : Manuel Goepfert
Aiuto per la traduzione : Arnaldo La Scala

Contatto : metmap@orbifly.com




FONTI E CREDITI :

   NOAA